createdAt,value
2018-03-19T00:00:30.031Z,-1.01
2018-03-19T00:01:30.004Z,-1.09
2018-03-19T00:02:30.013Z,-1.15
2018-03-19T00:03:30.122Z,-1.07
2018-03-19T00:04:30.028Z,-1.05
2018-03-19T00:05:30.036Z,-1.04
2018-03-19T00:06:30.045Z,-1.07
2018-03-19T00:07:30.053Z,-1.13
2018-03-19T00:08:30.058Z,-1.15
2018-03-19T00:09:30.073Z,-1.10
2018-03-19T00:10:30.081Z,-1.09
2018-03-19T00:11:30.085Z,-1.10
2018-03-19T00:12:30.092Z,-1.10
2018-03-19T00:13:30.097Z,-1.12
2018-03-19T00:14:30.133Z,-1.12
2018-03-19T00:15:30.113Z,-0.89
2018-03-19T00:16:30.120Z,-1.05
2018-03-19T00:17:30.128Z,-1.09
2018-03-19T00:18:30.157Z,-1.12
2018-03-19T00:19:30.146Z,-1.04
2018-03-19T00:20:30.154Z,-1.09
2018-03-19T00:21:30.162Z,-1.05
2018-03-19T00:22:30.167Z,-1.05
2018-03-19T00:23:30.173Z,-1.09
2018-03-19T00:24:30.180Z,-1.13
2018-03-19T00:25:30.189Z,-1.10
2018-03-19T00:26:30.198Z,-1.13
2018-03-19T00:27:30.206Z,-1.09
2018-03-19T00:28:30.213Z,-1.15
2018-03-19T00:29:30.234Z,-1.20
2018-03-19T00:30:30.228Z,-1.12
2018-03-19T00:31:30.235Z,-1.05
2018-03-19T00:32:30.244Z,-1.12
2018-03-19T00:33:30.269Z,-1.12
2018-03-19T00:34:30.258Z,-1.12
2018-03-19T00:35:30.264Z,-1.13
2018-03-19T00:36:30.279Z,-1.19
2018-03-19T00:37:30.281Z,-1.16
2018-03-19T00:38:30.288Z,-1.22
2018-03-19T00:39:30.300Z,-1.19
2018-03-19T00:40:30.303Z,-1.16
2018-03-19T00:41:30.312Z,-1.22
2018-03-19T00:42:30.319Z,-1.15
2018-03-19T00:43:30.326Z,-1.33
2018-03-19T00:44:30.334Z,-1.19
2018-03-19T00:45:30.346Z,-1.30
2018-03-19T00:46:30.350Z,-1.23
2018-03-19T00:47:30.355Z,-1.22
2018-03-19T00:48:30.371Z,-1.22
2018-03-19T00:49:30.370Z,-1.15
2018-03-19T00:50:30.373Z,-1.13
2018-03-19T00:51:30.379Z,-1.13
2018-03-19T00:52:30.386Z,-1.19
2018-03-19T00:53:30.393Z,-1.20
2018-03-19T00:54:30.403Z,-1.17
2018-03-19T00:55:30.420Z,-1.31
2018-03-19T00:56:30.418Z,-1.30
2018-03-19T00:57:30.423Z,-1.23
2018-03-19T00:58:30.432Z,-1.27
2018-03-19T00:59:30.438Z,-1.31
2018-03-19T01:00:30.449Z,-1.31
2018-03-19T01:01:30.455Z,-1.27
2018-03-19T01:02:30.467Z,-1.38
2018-03-19T01:03:30.467Z,-1.31
2018-03-19T01:04:30.476Z,-1.41
2018-03-19T01:05:30.484Z,-1.40
2018-03-19T01:06:30.491Z,-1.31
2018-03-19T01:07:30.502Z,-1.33
2018-03-19T01:08:30.506Z,-1.25
2018-03-19T01:09:30.514Z,-1.28
2018-03-19T01:10:30.528Z,-1.31
2018-03-19T01:11:30.532Z,-1.35
2018-03-19T01:12:30.538Z,-1.38
2018-03-19T01:13:30.545Z,-1.38
2018-03-19T01:14:30.561Z,-1.38
2018-03-19T01:15:30.557Z,-1.40
2018-03-19T01:16:30.567Z,-1.27
2018-03-19T01:17:30.572Z,-1.33
2018-03-19T01:18:30.580Z,-1.38
2018-03-19T01:19:30.588Z,-1.33
2018-03-19T01:20:30.595Z,-1.37
2018-03-19T01:21:30.604Z,-1.41
2018-03-19T01:22:30.610Z,-1.41
2018-03-19T01:23:30.620Z,-1.38
2018-03-19T01:24:30.627Z,-1.45
2018-03-19T01:25:30.633Z,-1.37
2018-03-19T01:26:30.643Z,-1.38
2018-03-19T01:27:30.647Z,-1.48
2018-03-19T01:28:30.654Z,-1.48
2018-03-19T01:29:30.661Z,-1.46
2018-03-19T01:30:30.669Z,-1.52
2018-03-19T01:31:30.679Z,-1.51
2018-03-19T01:32:30.688Z,-1.46
2018-03-19T01:33:30.692Z,-1.52
2018-03-19T01:34:30.706Z,-1.52
2018-03-19T01:35:30.706Z,-1.46
2018-03-19T01:36:30.713Z,-1.52
2018-03-19T01:37:30.721Z,-1.51
2018-03-19T01:38:30.732Z,-1.46
2018-03-19T01:39:30.738Z,-1.49
2018-03-19T01:40:30.745Z,-1.56
2018-03-19T01:41:30.750Z,-1.48
2018-03-19T01:42:30.758Z,-1.51
2018-03-19T01:43:30.764Z,-1.46
2018-03-19T01:44:30.774Z,-1.43
2018-03-19T01:45:30.781Z,-1.49
2018-03-19T01:46:30.801Z,-1.45
2018-03-19T01:47:30.798Z,-1.51
2018-03-19T01:48:30.801Z,-1.46
2018-03-19T01:49:30.811Z,-1.54
2018-03-19T01:50:30.817Z,-1.61
2018-03-19T01:51:30.827Z,-1.54
2018-03-19T01:52:30.830Z,-1.54
2018-03-19T01:53:30.846Z,-1.49
2018-03-19T01:54:30.845Z,-1.58
2018-03-19T01:55:30.854Z,-1.51
2018-03-19T01:56:30.861Z,-1.58
2018-03-19T01:57:30.868Z,-1.62
2018-03-19T01:58:30.879Z,-1.69
2018-03-19T01:59:30.888Z,-1.70
2018-03-19T02:00:30.892Z,-1.56
2018-03-19T02:01:30.898Z,-1.73
2018-03-19T02:02:30.906Z,-1.70
2018-03-19T02:03:30.918Z,-1.69
2018-03-19T02:04:30.919Z,-1.66
2018-03-19T02:05:30.926Z,-1.67
2018-03-19T02:06:30.937Z,-1.72
2018-03-19T02:07:30.940Z,-1.62
2018-03-19T02:08:30.948Z,-1.69
2018-03-19T02:09:30.955Z,-1.76
2018-03-19T02:10:30.963Z,-1.80
2018-03-19T02:11:30.970Z,-1.82
2018-03-19T02:12:30.977Z,-1.69
2018-03-19T02:13:30.988Z,-1.74
2018-03-19T02:14:30.992Z,-1.79
2018-03-19T02:15:30.998Z,-1.87
2018-03-19T02:16:31.011Z,-1.94
2018-03-19T02:17:31.015Z,-1.80
2018-03-19T02:18:31.022Z,-1.87
2018-03-19T02:19:31.027Z,-1.88
2018-03-19T02:20:31.038Z,-1.88
2018-03-19T02:21:31.044Z,-1.73
2018-03-19T02:22:31.056Z,-1.90
2018-03-19T02:23:31.160Z,-1.76
2018-03-19T02:24:31.065Z,-1.79
2018-03-19T02:25:31.071Z,-1.90
2018-03-19T02:26:31.081Z,-1.79
2018-03-19T02:27:31.087Z,-1.85
2018-03-19T02:28:31.096Z,-1.88
2018-03-19T02:29:31.112Z,-1.87
2018-03-19T02:30:31.110Z,-1.80
2018-03-19T02:31:31.122Z,-1.77
2018-03-19T02:32:31.125Z,-1.77
2018-03-19T02:33:31.134Z,-1.90
2018-03-19T02:34:31.137Z,-1.98
2018-03-19T02:35:31.144Z,-1.90
2018-03-19T02:36:31.161Z,-1.92
2018-03-19T02:37:31.160Z,-1.88
2018-03-19T02:38:31.168Z,-1.88
2018-03-19T02:39:31.175Z,-1.92
2018-03-19T02:40:31.183Z,-1.85
2018-03-19T02:41:31.187Z,-1.88
2018-03-19T02:42:31.200Z,-1.84
2018-03-19T02:43:31.205Z,-1.97
2018-03-19T02:44:31.210Z,-1.97
2018-03-19T02:45:31.218Z,-1.91
2018-03-19T02:46:31.225Z,-1.95
2018-03-19T02:47:31.234Z,-1.94
2018-03-19T02:48:31.242Z,-1.94
2018-03-19T02:49:31.247Z,-1.91
2018-03-19T02:50:31.262Z,-1.88
2018-03-19T02:51:31.261Z,-1.94
2018-03-19T02:52:31.268Z,-1.95
2018-03-19T02:53:31.293Z,-1.90
2018-03-19T02:54:31.288Z,-1.94
2018-03-19T02:55:31.292Z,-1.90
2018-03-19T02:56:31.298Z,-1.97
2018-03-19T02:57:31.306Z,-1.85
2018-03-19T02:58:31.311Z,-1.88
2018-03-19T02:59:31.321Z,-1.91
2018-03-19T03:00:31.325Z,-1.92
2018-03-19T03:01:31.334Z,-1.92
2018-03-19T03:02:31.358Z,-1.91
2018-03-19T03:03:31.350Z,-1.95
2018-03-19T03:04:31.359Z,-1.95
2018-03-19T03:05:31.363Z,-1.94
2018-03-19T03:06:31.370Z,-1.94
2018-03-19T03:07:31.377Z,-1.94
2018-03-19T03:08:31.385Z,-1.97
2018-03-19T03:09:31.392Z,-2.09
2018-03-19T03:10:31.400Z,-2.16
2018-03-19T03:11:31.407Z,-2.09
2018-03-19T03:12:31.415Z,-2.03
2018-03-19T03:13:31.420Z,-2.12
2018-03-19T03:14:31.427Z,-2.10
2018-03-19T03:15:31.433Z,-2.15
2018-03-19T03:16:31.443Z,-2.15
2018-03-19T03:17:31.450Z,-2.03
2018-03-19T03:18:31.457Z,-2.09
2018-03-19T03:19:31.472Z,-2.09
2018-03-19T03:20:31.480Z,-2.08
2018-03-19T03:21:31.480Z,-2.18
2018-03-19T03:22:31.487Z,-2.13
2018-03-19T03:23:31.494Z,-2.18
2018-03-19T03:24:31.500Z,-2.16
2018-03-19T03:25:31.510Z,-2.16
2018-03-19T03:26:31.515Z,-2.26
2018-03-19T03:27:31.520Z,-2.21
2018-03-19T03:28:31.529Z,-2.23
2018-03-19T03:29:31.537Z,-2.21
2018-03-19T03:30:31.544Z,-2.24
2018-03-19T03:31:31.551Z,-2.30
2018-03-19T03:32:31.557Z,-2.27
2018-03-19T03:33:31.564Z,-2.26
2018-03-19T03:34:31.572Z,-2.29
2018-03-19T03:35:31.578Z,-2.21
2018-03-19T03:36:31.589Z,-2.35
2018-03-19T03:37:31.598Z,-2.24
2018-03-19T03:38:31.606Z,-2.29
2018-03-19T03:39:31.607Z,-2.26
2018-03-19T03:40:31.616Z,-2.23
2018-03-19T03:41:31.626Z,-2.26
2018-03-19T03:42:31.630Z,-2.23
2018-03-19T03:43:31.636Z,-2.30
2018-03-19T03:44:31.643Z,-2.30
2018-03-19T03:45:31.652Z,-2.26
2018-03-19T03:46:31.667Z,-2.32
2018-03-19T03:47:31.663Z,-2.39
2018-03-19T03:48:31.672Z,-2.29
2018-03-19T03:49:31.683Z,-2.35
2018-03-19T03:50:31.693Z,-2.23
2018-03-19T03:51:31.696Z,-2.37
2018-03-19T03:52:31.707Z,-2.34
2018-03-19T03:53:31.714Z,-2.35
2018-03-19T03:54:31.716Z,-2.46
2018-03-19T03:55:31.727Z,-2.46
2018-03-19T03:56:31.729Z,-2.48
2018-03-19T03:57:31.738Z,-2.39
2018-03-19T03:58:31.750Z,-2.49
2018-03-19T03:59:31.753Z,-2.52
2018-03-19T04:00:31.760Z,-2.50
2018-03-19T04:01:31.768Z,-2.63
2018-03-19T04:02:31.772Z,-2.61
2018-03-19T04:03:31.780Z,-2.55
2018-03-19T04:04:31.792Z,-2.68
2018-03-19T04:05:31.793Z,-2.66
2018-03-19T04:06:31.804Z,-2.56
2018-03-19T04:07:31.808Z,-2.56
2018-03-19T04:08:31.815Z,-2.60
2018-03-19T04:09:31.821Z,-2.60
2018-03-19T04:10:31.831Z,-2.64
2018-03-19T04:11:31.837Z,-2.66
2018-03-19T04:12:31.849Z,-2.61
2018-03-19T04:13:31.851Z,-2.70
2018-03-19T04:14:31.860Z,-2.71
2018-03-19T04:15:31.863Z,-2.73
2018-03-19T04:16:31.872Z,-2.68
2018-03-19T04:17:31.879Z,-2.71
2018-03-19T04:18:31.893Z,-2.68
2018-03-19T04:19:31.894Z,-2.68
2018-03-19T04:20:31.900Z,-2.77
2018-03-19T04:21:31.906Z,-2.70
2018-03-19T04:22:31.914Z,-2.81
2018-03-19T04:23:31.922Z,-2.82
2018-03-19T04:24:31.946Z,-2.73
2018-03-19T04:25:31.934Z,-2.74
2018-03-19T04:26:31.941Z,-2.73
2018-03-19T04:27:31.950Z,-2.84
2018-03-19T04:28:31.959Z,-2.74
2018-03-19T04:29:31.972Z,-2.73
2018-03-19T04:30:31.969Z,-2.78
2018-03-19T04:31:31.981Z,-2.64
2018-03-19T04:32:31.987Z,-2.78
2018-03-19T04:33:31.989Z,-2.68
2018-03-19T04:34:31.997Z,-2.77
2018-03-19T04:35:32.004Z,-2.77
2018-03-19T04:36:32.012Z,-2.82
2018-03-19T04:37:32.019Z,-2.79
2018-03-19T04:38:32.025Z,-2.82
2018-03-19T04:39:32.033Z,-2.89
2018-03-19T04:40:32.038Z,-2.81
2018-03-19T04:41:32.044Z,-2.84
2018-03-19T04:42:32.053Z,-2.78
2018-03-19T04:43:32.058Z,-2.74
2018-03-19T04:44:32.071Z,-2.68
2018-03-19T04:45:32.073Z,-2.77
2018-03-19T04:46:32.082Z,-2.78
2018-03-19T04:47:32.086Z,-2.79
2018-03-19T04:48:32.094Z,-2.79
2018-03-19T04:49:32.109Z,-2.81
2018-03-19T04:50:32.108Z,-2.79
2018-03-19T04:51:32.119Z,-2.81
2018-03-19T04:52:32.124Z,-2.74
2018-03-19T04:53:32.133Z,-2.85
2018-03-19T04:54:32.135Z,-2.82
2018-03-19T04:55:32.149Z,-2.89
2018-03-19T04:56:32.150Z,-2.92
2018-03-19T04:57:32.154Z,-2.89
2018-03-19T04:58:32.160Z,-2.89
2018-03-19T04:59:32.173Z,-2.85
2018-03-19T05:00:32.179Z,-2.82
2018-03-19T05:01:32.182Z,-2.89
2018-03-19T05:02:32.188Z,-2.92
2018-03-19T05:03:32.196Z,-2.92
2018-03-19T05:04:32.202Z,-3.00
2018-03-19T05:05:32.211Z,-2.96
2018-03-19T05:06:32.217Z,-2.99
2018-03-19T05:07:32.222Z,-3.00
2018-03-19T05:08:32.230Z,-2.99
2018-03-19T05:09:32.241Z,-3.02
2018-03-19T05:10:32.250Z,-3.00
2018-03-19T05:11:32.250Z,-2.92
2018-03-19T05:12:32.262Z,-2.85
2018-03-19T05:13:32.269Z,-2.92
2018-03-19T05:14:32.272Z,-2.89
2018-03-19T05:15:32.280Z,-2.92
2018-03-19T05:16:32.290Z,-2.88
2018-03-19T05:17:32.292Z,-2.92
2018-03-19T05:18:32.299Z,-2.88
2018-03-19T05:19:32.305Z,-2.81
2018-03-19T05:20:32.314Z,-2.81
2018-03-19T05:21:32.330Z,-2.86
2018-03-19T05:22:32.332Z,-2.92
2018-03-19T05:23:32.333Z,-2.86
2018-03-19T05:24:32.348Z,-2.99
2018-03-19T05:25:32.352Z,-2.97
2018-03-19T05:26:32.362Z,-2.97
2018-03-19T05:27:32.364Z,-2.94
2018-03-19T05:28:32.370Z,-2.92
2018-03-19T05:29:32.377Z,-2.97
2018-03-19T05:30:32.384Z,-2.97
2018-03-19T05:31:32.390Z,-2.94
2018-03-19T05:32:32.394Z,-3.02
2018-03-19T05:33:32.401Z,-2.88
2018-03-19T05:34:32.414Z,-2.85
2018-03-19T05:35:32.419Z,-2.89
2018-03-19T05:36:32.425Z,-2.97
2018-03-19T05:37:32.434Z,-3.03
2018-03-19T05:38:32.440Z,-2.97
2018-03-19T05:39:32.446Z,-3.03
2018-03-19T05:40:32.450Z,-3.06
2018-03-19T05:41:32.463Z,-2.92
2018-03-19T05:42:32.468Z,-2.97
2018-03-19T05:43:32.471Z,-2.94
2018-03-19T05:44:32.479Z,-3.05
2018-03-19T05:45:32.494Z,-2.97
2018-03-19T05:46:32.489Z,-3.02
2018-03-19T05:47:32.501Z,-2.96
2018-03-19T05:48:32.502Z,-3.00
2018-03-19T05:49:32.521Z,-3.02
2018-03-19T05:50:32.519Z,-2.91
2018-03-19T05:51:32.529Z,-3.02
2018-03-19T05:52:32.536Z,-2.91
2018-03-19T05:53:32.538Z,-2.99
2018-03-19T05:54:32.544Z,-2.91
2018-03-19T05:55:32.551Z,-2.97
2018-03-19T05:56:32.566Z,-2.96
2018-03-19T05:57:32.579Z,-3.02
2018-03-19T05:58:32.573Z,-2.92
2018-03-19T05:59:32.582Z,-3.05
2018-03-19T06:00:32.587Z,-2.97
2018-03-19T06:01:32.598Z,-2.92
2018-03-19T06:02:32.612Z,-2.99
2018-03-19T06:03:32.622Z,-2.92
2018-03-19T06:04:32.615Z,-3.02
2018-03-19T06:05:32.619Z,-3.03
2018-03-19T06:06:32.628Z,-2.94
2018-03-19T06:07:32.637Z,-2.94
2018-03-19T06:08:32.673Z,-2.96
2018-03-19T06:09:32.655Z,-2.96
2018-03-19T06:10:32.659Z,-2.89
2018-03-19T06:11:32.663Z,-2.96
2018-03-19T06:12:32.669Z,-2.92
2018-03-19T06:13:32.682Z,-3.07
2018-03-19T06:14:32.683Z,-2.97
2018-03-19T06:15:32.696Z,-2.86
2018-03-19T06:16:32.697Z,-2.84
2018-03-19T06:17:32.725Z,-2.92
2018-03-19T06:18:32.726Z,-2.89
2018-03-19T06:19:32.717Z,-2.84
2018-03-19T06:20:32.730Z,-2.91
2018-03-19T06:21:32.737Z,-2.92
2018-03-19T06:22:32.739Z,-3.00
2018-03-19T06:23:32.750Z,-3.05
2018-03-19T06:24:32.758Z,-3.00
2018-03-19T06:25:32.761Z,-2.89
2018-03-19T06:26:32.788Z,-2.96
2018-03-19T06:27:32.777Z,-2.84
2018-03-19T06:28:32.782Z,-2.84
2018-03-19T06:29:32.804Z,-2.86
2018-03-19T06:30:32.795Z,-2.68
2018-03-19T06:31:32.798Z,-2.79
2018-03-19T06:32:32.806Z,-2.77
2018-03-19T06:33:32.814Z,-2.84
2018-03-19T06:34:32.820Z,-2.85
2018-03-19T06:35:32.837Z,-2.79
2018-03-19T06:36:32.833Z,-2.79
2018-03-19T06:37:32.841Z,-2.81
2018-03-19T06:38:32.853Z,-2.86
2018-03-19T06:39:32.857Z,-2.78
2018-03-19T06:40:32.860Z,-2.88
2018-03-19T06:41:32.866Z,-2.77
2018-03-19T06:42:32.874Z,-2.82
2018-03-19T06:43:32.883Z,-2.79
2018-03-19T06:44:32.890Z,-2.84
2018-03-19T06:45:32.894Z,-2.81
2018-03-19T06:46:32.901Z,-2.73
2018-03-19T06:47:32.912Z,-2.70
2018-03-19T06:48:32.925Z,-2.67
2018-03-19T06:49:32.923Z,-2.71
2018-03-19T06:50:32.936Z,-2.67
2018-03-19T06:51:32.942Z,-2.67
2018-03-19T06:52:32.941Z,-2.70
2018-03-19T06:53:32.950Z,-2.30
2018-03-19T06:54:32.968Z,-2.10
2018-03-19T06:55:33.007Z,-1.97
2018-03-19T06:56:32.986Z,-1.02
2018-03-19T06:57:32.989Z,-0.64
2018-03-19T06:58:33.013Z,-0.83
2018-03-19T06:59:32.998Z,-1.33
2018-03-19T07:00:32.997Z,-1.77
2018-03-19T07:01:33.037Z,-1.91
2018-03-19T07:02:33.012Z,-2.05
2018-03-19T07:03:33.047Z,-2.13
2018-03-19T07:04:33.036Z,-2.18
2018-03-19T07:05:33.133Z,-2.29
2018-03-19T07:06:33.060Z,-2.26
2018-03-19T07:07:33.057Z,-2.37
2018-03-19T07:08:33.060Z,-2.37
2018-03-19T07:09:33.061Z,-2.40
2018-03-19T07:10:33.089Z,-2.35
2018-03-19T07:11:33.118Z,-2.34
2018-03-19T07:12:33.093Z,-2.40
2018-03-19T07:13:33.095Z,-2.34
2018-03-19T07:14:33.098Z,-2.29
2018-03-19T07:15:33.120Z,-2.32
2018-03-19T07:16:33.111Z,-2.27
2018-03-19T07:17:33.121Z,-2.29
2018-03-19T07:18:33.141Z,-2.34
2018-03-19T07:19:33.137Z,-2.29
2018-03-19T07:20:33.144Z,-2.24
2018-03-19T07:21:33.153Z,-2.21
2018-03-19T07:22:33.210Z,-2.27
2018-03-19T07:23:33.165Z,-2.26
2018-03-19T07:24:33.169Z,-2.21
2018-03-19T07:25:33.176Z,-2.20
2018-03-19T07:26:33.189Z,-2.24
2018-03-19T07:27:33.193Z,-2.18
2018-03-19T07:28:33.201Z,-2.20
2018-03-19T07:29:33.215Z,-2.21
2018-03-19T07:30:33.211Z,-2.18
2018-03-19T07:31:33.219Z,-2.08
2018-03-19T07:32:33.227Z,-2.00
2018-03-19T07:33:33.234Z,-1.97
2018-03-19T07:34:33.248Z,-2.00
2018-03-19T07:35:33.255Z,-1.91
2018-03-19T07:36:33.264Z,-1.88
2018-03-19T07:37:33.266Z,-1.87
2018-03-19T07:38:33.276Z,-1.91
2018-03-19T07:39:33.279Z,-1.90
2018-03-19T07:40:33.283Z,-1.90
2018-03-19T07:41:33.299Z,-1.85
2018-03-19T07:42:33.299Z,-1.90
2018-03-19T07:43:33.307Z,-1.94
2018-03-19T07:44:33.315Z,-1.77
2018-03-19T07:45:33.319Z,-1.74
2018-03-19T07:46:33.645Z,-1.73
2018-03-19T07:47:33.349Z,-1.69
2018-03-19T07:48:33.357Z,-1.69
2018-03-19T07:49:33.349Z,-1.69
2018-03-19T07:50:33.358Z,-1.67
2018-03-19T07:51:33.358Z,-1.66
2018-03-19T07:52:33.366Z,-1.54
2018-03-19T07:53:33.375Z,-1.59
2018-03-19T07:55:33.772Z,-1.51
2018-03-19T07:56:34.181Z,-1.49
2018-03-19T07:57:34.166Z,-1.52
2018-03-19T07:58:33.416Z,-1.55
2018-03-19T07:59:33.421Z,-1.52
2018-03-19T08:00:33.602Z,-1.45
2018-03-19T08:01:37.120Z,-1.37
2018-03-19T08:02:33.444Z,-1.45
2018-03-19T08:03:33.449Z,-1.38
2018-03-19T08:04:33.456Z,-1.35
2018-03-19T08:05:34.074Z,-1.38
2018-03-19T08:06:33.726Z,-1.40
2018-03-19T08:07:33.705Z,-1.34
2018-03-19T08:08:34.219Z,-1.34
2018-03-19T08:09:33.494Z,-1.41
2018-03-19T08:10:33.534Z,-1.54
2018-03-19T08:11:33.509Z,-1.45
2018-03-19T08:12:33.571Z,-1.41
2018-03-19T08:13:33.529Z,-1.35
2018-03-19T08:14:33.853Z,-1.22
2018-03-19T08:15:33.790Z,-1.23
2018-03-19T08:16:33.570Z,-1.28
2018-03-19T08:17:33.560Z,-1.22
2018-03-19T08:18:33.777Z,-1.12
2018-03-19T08:19:33.571Z,-1.12
2018-03-19T08:20:33.581Z,-1.10
2018-03-19T08:21:33.590Z,-0.98
2018-03-19T08:22:33.600Z,-0.89
2018-03-19T08:23:33.601Z,-0.89
2018-03-19T08:24:33.610Z,-0.85
2018-03-19T08:25:33.620Z,-0.80
2018-03-19T08:26:33.626Z,-0.83
2018-03-19T08:27:33.639Z,-0.92
2018-03-19T08:28:33.640Z,-1.10
2018-03-19T08:30:34.257Z,-0.95
2018-03-19T08:31:33.871Z,-1.04
2018-03-19T08:32:33.868Z,-0.89
2018-03-19T08:33:33.687Z,-0.75
2018-03-19T08:34:33.690Z,-0.73
2018-03-19T08:35:33.714Z,-0.72
2018-03-19T08:36:33.716Z,-0.83
2018-03-19T08:37:33.711Z,-0.91
2018-03-19T08:38:33.720Z,-0.89
2018-03-19T08:39:33.727Z,-0.78
2018-03-19T08:40:33.737Z,-0.75
2018-03-19T08:41:33.753Z,-0.67
2018-03-19T08:42:33.810Z,-0.75
2018-03-19T08:43:33.758Z,-0.70
2018-03-19T08:44:33.766Z,-0.65
2018-03-19T08:45:33.776Z,-0.58
2018-03-19T08:46:33.783Z,-0.67
2018-03-19T08:47:33.790Z,-0.62
2018-03-19T08:48:33.805Z,-0.65
2018-03-19T08:49:33.815Z,-0.64
2018-03-19T08:50:33.815Z,-0.49
2018-03-19T08:51:34.065Z,-0.37
2018-03-19T08:52:33.842Z,-0.34
2018-03-19T08:53:33.855Z,-0.31
2018-03-19T08:54:33.846Z,-0.25
2018-03-19T08:55:33.855Z,-0.29
2018-03-19T08:56:33.869Z,-0.25
2018-03-19T08:57:33.874Z,-0.23
2018-03-19T08:58:33.936Z,-0.26
2018-03-19T08:59:33.887Z,-0.25
2018-03-19T09:00:33.895Z,-0.11
2018-03-19T09:02:33.913Z,-0.11
2018-03-19T09:03:33.919Z,-0.11
2018-03-19T09:04:33.927Z,-0.23
2018-03-19T09:05:33.936Z,-0.21
2018-03-19T09:06:33.948Z,-0.23
2018-03-19T09:07:33.952Z,-0.21
2018-03-19T09:08:33.958Z,-0.23
2018-03-19T09:09:33.969Z,-0.08
2018-03-19T09:10:33.976Z,-0.05
2018-03-19T09:11:33.991Z,-0.01
2018-03-19T09:12:33.995Z,0.02
2018-03-19T09:13:34.004Z,0.13
2018-03-19T09:14:34.011Z,0.00
2018-03-19T09:15:34.018Z,-0.05
2018-03-19T09:16:34.028Z,-0.11
2018-03-19T09:17:34.337Z,-0.08
2018-03-19T09:18:34.040Z,-0.01
2018-03-19T09:19:34.052Z,0.08
2018-03-19T09:20:34.060Z,0.13
2018-03-19T09:21:34.068Z,0.15
2018-03-19T09:22:34.076Z,0.26
2018-03-19T09:23:34.084Z,0.28
2018-03-19T09:24:34.088Z,0.35
2018-03-19T09:25:34.108Z,0.41
2018-03-19T09:26:34.106Z,0.47
2018-03-19T09:27:34.115Z,0.46
2018-03-19T09:28:34.122Z,0.42
2018-03-19T09:29:34.137Z,0.51
2018-03-19T09:30:34.139Z,0.42
2018-03-19T09:31:34.148Z,0.36
2018-03-19T09:32:34.159Z,0.38
2018-03-19T09:33:34.168Z,0.47
2018-03-19T09:34:34.176Z,0.51
2018-03-19T09:35:34.191Z,0.55
2018-03-19T09:36:34.229Z,0.51
2018-03-19T09:37:34.203Z,0.62
2018-03-19T09:38:34.207Z,0.65
2018-03-19T09:39:34.221Z,0.72
2018-03-19T09:40:34.233Z,0.69
2018-03-19T09:41:34.236Z,0.57
2018-03-19T09:42:34.243Z,0.55
2018-03-19T09:43:34.260Z,0.51
2018-03-19T09:44:34.261Z,0.32
2018-03-19T09:45:34.269Z,0.31
2018-03-19T09:46:34.278Z,0.39
2018-03-19T09:47:34.284Z,0.57
2018-03-19T09:48:34.295Z,0.69
2018-03-19T09:49:34.303Z,0.53
2018-03-19T09:50:34.313Z,0.62
2018-03-19T09:51:34.320Z,0.61
2018-03-19T09:52:34.329Z,0.68
2018-03-19T09:53:34.337Z,0.73
2018-03-19T09:54:34.346Z,0.68
2018-03-19T09:55:34.353Z,0.76
2018-03-19T09:56:34.368Z,0.75
2018-03-19T09:57:34.376Z,0.86
2018-03-19T09:58:34.381Z,0.98
2018-03-19T09:59:34.391Z,1.08
2018-03-19T10:00:34.398Z,1.22
2018-03-19T10:01:34.409Z,1.23
2018-03-19T10:02:34.416Z,1.22
2018-03-19T10:03:34.428Z,1.22
2018-03-19T10:04:34.436Z,1.36
2018-03-19T10:05:34.442Z,1.37
2018-03-19T10:06:34.457Z,1.34
2018-03-19T10:07:34.461Z,1.37
2018-03-19T10:08:34.485Z,1.27
2018-03-19T10:09:34.480Z,1.16
2018-03-19T10:10:34.487Z,1.11
2018-03-19T10:11:34.515Z,1.16
2018-03-19T10:12:34.506Z,1.29
2018-03-19T10:13:34.517Z,1.27
2018-03-19T10:14:34.523Z,1.41
2018-03-19T10:15:34.534Z,1.34
2018-03-19T10:16:34.551Z,1.29
2018-03-19T10:17:34.550Z,1.26
2018-03-19T10:18:34.560Z,1.22
2018-03-19T10:19:34.568Z,1.40
2018-03-19T10:20:34.575Z,1.41
2018-03-19T10:21:34.586Z,1.45
2018-03-19T10:22:34.597Z,1.55
2018-03-19T10:23:34.605Z,1.52
2018-03-19T10:24:34.612Z,1.66
2018-03-19T10:25:34.624Z,1.72
2018-03-19T10:26:34.632Z,1.73
2018-03-19T10:27:34.673Z,1.62
2018-03-19T10:28:34.656Z,1.68
2018-03-19T10:29:34.659Z,1.80
2018-03-19T10:30:34.672Z,1.93
2018-03-19T10:31:34.676Z,2.02
2018-03-19T10:32:34.686Z,1.98
2018-03-19T10:33:34.703Z,2.02
2018-03-19T10:34:34.706Z,1.95
2018-03-19T10:35:35.099Z,1.99
2018-03-19T10:36:34.724Z,2.05
2018-03-19T10:37:34.739Z,2.06
2018-03-19T10:38:34.753Z,2.09
2018-03-19T10:39:34.751Z,2.17
2018-03-19T10:40:34.762Z,2.06
2018-03-19T10:41:34.770Z,2.10
2018-03-19T10:42:34.785Z,2.09
2018-03-19T10:43:34.789Z,2.09
2018-03-19T10:44:34.833Z,2.14
2018-03-19T10:45:34.808Z,2.12
2018-03-19T10:46:34.824Z,2.14
2018-03-19T10:47:34.827Z,2.17
2018-03-19T10:48:34.835Z,2.18
2018-03-19T10:49:34.845Z,2.10
2018-03-19T10:50:34.856Z,2.10
2018-03-19T10:51:34.868Z,2.23
2018-03-19T10:52:34.874Z,2.20
2018-03-19T10:53:34.887Z,2.20
2018-03-19T10:54:34.892Z,2.25
2018-03-19T10:55:34.903Z,2.31
2018-03-19T10:56:34.918Z,2.43
2018-03-19T10:57:34.921Z,2.59
2018-03-19T10:58:34.934Z,2.67
2018-03-19T10:59:34.943Z,2.53
2018-03-19T11:00:34.952Z,2.56
2018-03-19T11:01:34.962Z,2.46
2018-03-19T11:02:34.969Z,2.49
2018-03-19T11:03:34.987Z,2.43
2018-03-19T11:04:35.091Z,2.46
2018-03-19T11:05:34.999Z,2.56
2018-03-19T11:06:35.019Z,2.57
2018-03-19T11:07:35.017Z,2.45
2018-03-19T11:08:35.030Z,2.45
2018-03-19T11:09:35.039Z,2.45
2018-03-19T11:10:35.051Z,2.45
2018-03-19T11:11:35.055Z,2.38
2018-03-19T11:12:35.066Z,2.25
2018-03-19T11:13:35.079Z,2.24
2018-03-19T11:14:35.087Z,2.24
2018-03-19T11:15:35.094Z,2.23
2018-03-19T11:16:35.103Z,2.16
2018-03-19T11:17:35.169Z,2.42
2018-03-19T11:18:35.129Z,2.45
2018-03-19T11:19:35.136Z,2.69
2018-03-19T11:20:35.158Z,2.78
2018-03-19T11:21:35.168Z,2.93
2018-03-19T11:22:35.163Z,2.85
2018-03-19T11:23:35.171Z,2.71
2018-03-19T11:24:35.190Z,2.59
2018-03-19T11:25:35.201Z,2.64
2018-03-19T11:26:35.201Z,2.71
2018-03-19T11:27:35.214Z,2.57
2018-03-19T11:28:35.222Z,2.45
2018-03-19T11:29:35.231Z,2.45
2018-03-19T11:30:35.242Z,2.52
2018-03-19T11:31:35.252Z,2.72
2018-03-19T11:32:35.260Z,2.75
2018-03-19T11:33:35.272Z,2.90
2018-03-19T11:34:35.282Z,2.95
2018-03-19T11:35:35.293Z,2.95
2018-03-19T11:36:35.303Z,2.95
2018-03-19T11:37:35.312Z,2.93
2018-03-19T11:38:35.325Z,2.82
2018-03-19T11:39:35.330Z,2.78
2018-03-19T11:40:35.339Z,2.81
2018-03-19T11:41:35.348Z,2.82
2018-03-19T11:42:35.360Z,2.78
2018-03-19T11:43:35.418Z,2.92
2018-03-19T11:44:35.383Z,2.90
2018-03-19T11:45:35.390Z,2.67
2018-03-19T11:46:35.413Z,2.79
2018-03-19T11:47:35.412Z,2.75
2018-03-19T11:48:35.416Z,2.89
2018-03-19T11:49:35.436Z,3.13
2018-03-19T11:50:35.438Z,3.02
2018-03-19T11:51:35.452Z,3.05
2018-03-19T11:52:35.462Z,3.11
2018-03-19T11:53:35.469Z,3.08
2018-03-19T11:54:35.475Z,2.85
2018-03-19T11:55:35.491Z,2.75
2018-03-19T11:56:35.496Z,2.74
2018-03-19T11:57:35.508Z,2.99
2018-03-19T11:58:35.522Z,2.72
2018-03-19T11:59:35.528Z,2.95
2018-03-19T12:00:35.534Z,2.99
2018-03-19T12:01:35.549Z,2.95
2018-03-19T12:02:35.557Z,2.97
2018-03-19T12:03:35.564Z,3.03
2018-03-19T12:04:35.575Z,3.08
2018-03-19T12:05:35.585Z,2.93
2018-03-19T12:06:35.596Z,2.97
2018-03-19T12:07:35.607Z,3.06
2018-03-19T12:08:35.618Z,3.03
2018-03-19T12:09:35.626Z,3.21
2018-03-19T12:10:35.635Z,3.40
2018-03-19T12:11:35.646Z,3.45
2018-03-19T12:12:35.655Z,3.31
2018-03-19T12:13:35.669Z,3.11
2018-03-19T12:14:35.682Z,3.03
2018-03-19T12:15:35.688Z,3.17
2018-03-19T12:16:35.698Z,3.42
2018-03-19T12:17:35.711Z,3.47
2018-03-19T12:18:35.718Z,3.76
2018-03-19T12:19:35.729Z,3.78
2018-03-19T12:20:35.736Z,3.87
2018-03-19T12:21:35.745Z,3.84
2018-03-19T12:22:35.757Z,3.76
2018-03-19T12:23:35.768Z,3.62
2018-03-19T12:24:35.777Z,3.57
2018-03-19T12:25:35.788Z,3.40
2018-03-19T12:26:35.795Z,3.51
2018-03-19T12:27:35.805Z,3.58
2018-03-19T12:28:35.818Z,3.51
2018-03-19T12:29:35.826Z,3.61
2018-03-19T12:30:35.836Z,3.73
2018-03-19T12:31:35.846Z,3.78
2018-03-19T12:32:35.857Z,3.91
2018-03-19T12:33:35.868Z,3.94
2018-03-19T12:34:35.879Z,3.94
2018-03-19T12:35:35.889Z,3.84
2018-03-19T12:36:35.901Z,3.86
2018-03-19T12:37:35.912Z,3.79
2018-03-19T12:38:35.920Z,3.86
2018-03-19T12:39:35.936Z,3.96
2018-03-19T12:40:35.941Z,3.93
2018-03-19T12:41:35.955Z,3.96
2018-03-19T12:42:35.965Z,4.12
2018-03-19T12:43:35.972Z,4.02
2018-03-19T12:44:35.987Z,3.94
2018-03-19T12:45:35.994Z,4.05
2018-03-19T12:46:36.003Z,4.05
2018-03-19T12:47:36.012Z,4.20
2018-03-19T12:48:36.025Z,4.27
2018-03-19T12:49:36.039Z,4.29
2018-03-19T12:50:36.045Z,4.20
2018-03-19T12:51:36.057Z,4.22
2018-03-19T12:52:36.060Z,4.22
2018-03-19T12:53:36.071Z,4.04
2018-03-19T12:54:36.082Z,4.02
2018-03-19T12:55:36.091Z,3.96
2018-03-19T12:56:36.104Z,4.09
2018-03-19T12:57:36.114Z,4.05
2018-03-19T12:58:36.123Z,4.26
2018-03-19T12:59:36.135Z,4.30
2018-03-19T13:00:36.144Z,4.47
2018-03-19T13:01:36.157Z,4.47
2018-03-19T13:02:36.171Z,4.63
2018-03-19T13:03:36.177Z,4.67